map of HOR home
HOR - Airport
Location
City:  Horta, Região Autónoma dos Açores (Azores), Portugal
Near (Alt.):Faial Island
ICAO:LPHR
IATA:HOR

Details
Type:Airport (Aerodrome, Airfield)
Use:Public/Civil
Latitude:38°31'12"N (38.519894)
Longitude:28°42'57"W (-28.715871)
Datum:WGS 1984
Elevation:118 ft (36 m)
Variation:9.37°W (WMM2015 magnetic declination)
0.15° annual change
Runways:1
Longest:5233 × 148 ft (1595 × 45 m), paved

Time
Time Zone:UTC-1 (DST+0)
Local Time:

Weather
METAR:LPHR 191900Z 32004KT 9999 FEW020 16/10 Q1018

Related Locations
Nearby:
Farthest:XMC: 12331 mi / 19845 km
Mallacoota, Vic, AU

Find:

   beyond  
but within

Other Information
Maps:
NOTAMs:
Links:
Sources:

  
  • flag of Portugal
  • flag of Região Autónoma dos Açores (Azores)
  

Sectional Chart

Flight Planning
at skyvector.com

Satellite Image

Google Maps Satellite view

 

Copyright © 2004-2018 Karl L. Swartz. All rights reserved.
The Great Circle Mapper name and logo are trademarks of the Great Circle Mapper.
All other trademarks mentioned herein belong to their respective owners.
Please see credits for attibutions and further copyright information.

  Follow gcmap on Facebook Follow gcmap on Twitter Follow gcmap on Google+ GCmap on LinkedIn

hCard Microformat

Geo Microformat